createdAt,value
2017-10-11T00:02:03.716Z,101083.56
2017-10-11T00:04:32.051Z,101085.87
2017-10-11T00:07:00.656Z,101079.98
2017-10-11T00:09:29.340Z,101086.53
2017-10-11T00:11:57.701Z,101079.78
2017-10-11T00:14:26.253Z,101087.19
2017-10-11T00:16:56.044Z,101084.83
2017-10-11T00:19:25.183Z,101088.00
2017-10-11T00:21:53.647Z,101087.37
2017-10-11T00:24:21.991Z,101085.39
2017-10-11T00:26:50.656Z,101082.84
2017-10-11T00:29:19.275Z,101094.11
2017-10-11T00:31:48.179Z,101095.33
2017-10-11T00:34:17.298Z,101088.97
2017-10-11T00:36:46.383Z,101089.62
2017-10-11T00:39:14.772Z,101095.77
2017-10-11T00:41:43.839Z,101097.84
2017-10-11T00:44:12.976Z,101093.73
2017-10-11T00:46:41.324Z,101092.30
2017-10-11T00:49:10.463Z,101091.77
2017-10-11T00:51:41.800Z,101093.27
2017-10-11T00:54:10.598Z,101096.33
2017-10-11T00:56:38.964Z,101092.38
2017-10-11T00:59:08.014Z,101092.63
2017-10-11T01:01:36.590Z,101087.14
2017-10-11T01:04:05.188Z,101084.73
2017-10-11T01:06:35.038Z,101083.83
2017-10-11T01:09:03.836Z,101092.26
2017-10-11T01:11:32.183Z,101086.08
2017-10-11T01:14:01.340Z,101079.91
2017-10-11T01:16:30.489Z,101072.66
2017-10-11T01:18:58.860Z,101077.13
2017-10-11T01:21:27.764Z,101090.24
2017-10-11T01:23:57.880Z,101081.91
2017-10-11T01:26:26.446Z,101078.03
2017-10-11T01:28:55.592Z,101078.25
2017-10-11T01:31:24.806Z,101079.88
2017-10-11T01:33:53.150Z,101078.91
2017-10-11T01:36:21.511Z,101086.83
2017-10-11T01:38:51.233Z,101082.72
2017-10-11T01:41:19.590Z,101077.28
2017-10-11T01:43:48.907Z,101081.70
2017-10-11T01:46:19.277Z,101077.61
2017-10-11T01:48:47.640Z,101076.02
2017-10-11T01:51:16.025Z,101079.20
2017-10-11T01:53:44.917Z,101083.14
2017-10-11T01:56:13.289Z,101074.88
2017-10-11T01:58:41.682Z,101068.97
2017-10-11T02:01:10.318Z,101073.18
2017-10-11T02:03:39.680Z,101072.34
2017-10-11T02:06:08.655Z,101069.73
2017-10-11T02:08:37.485Z,101065.56
2017-10-11T02:11:06.617Z,101071.25
2017-10-11T02:13:36.636Z,101067.11
2017-10-11T02:16:05.002Z,101063.72
2017-10-11T02:18:34.335Z,101071.34
2017-10-11T02:21:03.160Z,101073.36
2017-10-11T02:23:31.542Z,101068.16
2017-10-11T02:26:00.598Z,101061.75
2017-10-11T02:28:29.119Z,101066.47
2017-10-11T02:30:57.492Z,101063.22
2017-10-11T02:33:26.960Z,101064.02
2017-10-11T02:35:55.331Z,101054.37
2017-10-11T02:38:24.463Z,101056.42
2017-10-11T02:40:53.339Z,101054.92
2017-10-11T02:43:22.240Z,101059.16
2017-10-11T02:45:51.957Z,101055.33
2017-10-11T02:48:20.315Z,101052.27
2017-10-11T02:50:49.634Z,101052.58
2017-10-11T02:53:18.009Z,101050.95
2017-10-11T02:55:47.351Z,101046.36
2017-10-11T02:58:16.514Z,101047.20
2017-10-11T03:00:45.916Z,101042.71
2017-10-11T03:03:14.739Z,101042.94
2017-10-11T03:05:43.900Z,101042.78
2017-10-11T03:08:13.662Z,101040.72
2017-10-11T03:10:43.100Z,101045.41
2017-10-11T03:13:12.179Z,101037.27
2017-10-11T03:15:41.433Z,101047.95
2017-10-11T03:18:10.202Z,101036.06
2017-10-11T03:20:38.581Z,101047.22
2017-10-11T03:23:06.922Z,101042.44
2017-10-11T03:25:36.338Z,101049.88
2017-10-11T03:28:04.933Z,101046.67
2017-10-11T03:30:34.071Z,101052.58
2017-10-11T03:33:02.413Z,101048.02
2017-10-11T03:35:30.919Z,101048.96
2017-10-11T03:37:59.268Z,101045.67
2017-10-11T03:40:28.183Z,101043.01
2017-10-11T03:42:56.806Z,101040.37
2017-10-11T03:45:25.149Z,101045.84
2017-10-11T03:47:53.798Z,101044.50
2017-10-11T03:50:22.423Z,101044.11
2017-10-11T03:52:50.778Z,101041.95
2017-10-11T03:55:19.136Z,101037.67
2017-10-11T03:57:47.796Z,101041.92
2017-10-11T04:00:17.005Z,101043.75
2017-10-11T04:02:46.258Z,101042.91
2017-10-11T04:05:14.643Z,101047.40
2017-10-11T04:07:43.927Z,101044.11
2017-10-11T04:10:12.305Z,101037.14
2017-10-11T04:12:40.666Z,101045.73
2017-10-11T04:15:09.030Z,101037.10
2017-10-11T04:17:38.406Z,101033.98
2017-10-11T04:20:08.378Z,101033.66
2017-10-11T04:22:37.511Z,101032.14
2017-10-11T04:25:05.854Z,101028.95
2017-10-11T04:27:35.099Z,101033.69
2017-10-11T04:30:04.904Z,101026.59
2017-10-11T04:32:34.991Z,101028.10
2017-10-11T04:35:04.710Z,101021.42
2017-10-11T04:37:34.303Z,101017.21
2017-10-11T04:40:02.880Z,101022.66
2017-10-11T04:42:31.301Z,101021.92
2017-10-11T04:45:00.439Z,101016.22
2017-10-11T04:47:29.736Z,101013.27
2017-10-11T04:49:59.038Z,101015.44
2017-10-11T04:52:27.635Z,101008.92
2017-10-11T04:54:56.748Z,101018.81
2017-10-11T04:57:26.047Z,101021.81
2017-10-11T04:59:54.394Z,101018.66
2017-10-11T05:02:23.648Z,101021.39
2017-10-11T05:04:54.048Z,101021.20
2017-10-11T05:07:23.922Z,101020.94
2017-10-11T05:09:56.205Z,101029.73
2017-10-11T05:12:24.631Z,101023.24
2017-10-11T05:14:53.845Z,101024.23
2017-10-11T05:17:22.183Z,101025.08
2017-10-11T05:19:50.570Z,101034.61
2017-10-11T05:22:19.827Z,101033.46
2017-10-11T05:24:48.915Z,101027.06
2017-10-11T05:27:17.952Z,101032.14
2017-10-11T05:29:46.301Z,101026.93
2017-10-11T05:32:15.585Z,101031.06
2017-10-11T05:34:45.306Z,101033.76
2017-10-11T05:37:13.658Z,101023.20
2017-10-11T05:39:42.240Z,101032.06
2017-10-11T05:42:11.636Z,101040.47
2017-10-11T05:44:40.653Z,101040.98
2017-10-11T05:47:09.007Z,101037.42
2017-10-11T05:49:37.561Z,101027.52
2017-10-11T05:52:05.918Z,101026.00
2017-10-11T05:54:35.062Z,101041.72
2017-10-11T05:57:04.233Z,101042.58
2017-10-11T05:59:33.408Z,101046.66
2017-10-11T06:02:02.545Z,101049.12
2017-10-11T06:04:30.904Z,101046.59
2017-10-11T06:07:00.082Z,101048.21
2017-10-11T06:09:28.447Z,101046.69
2017-10-11T06:11:56.994Z,101036.69
2017-10-11T06:14:26.351Z,101049.19
2017-10-11T06:16:55.601Z,101051.00
2017-10-11T06:19:25.974Z,101042.23
2017-10-11T06:21:55.209Z,101050.40
2017-10-11T06:24:24.274Z,101049.88
2017-10-11T06:26:54.112Z,101049.22
2017-10-11T06:29:23.389Z,101043.94
2017-10-11T06:31:53.534Z,101051.70
2017-10-11T06:34:23.484Z,101056.84
2017-10-11T06:36:52.791Z,101059.70
2017-10-11T06:39:21.166Z,101067.13
2017-10-11T06:41:49.910Z,101062.59
2017-10-11T06:44:19.333Z,101059.91
2017-10-11T06:46:47.941Z,101056.16
2017-10-11T06:49:16.372Z,101048.45
2017-10-11T06:51:44.774Z,101048.94
2017-10-11T06:54:13.149Z,101054.07
2017-10-11T06:56:42.662Z,101048.02
2017-10-11T06:59:11.072Z,101056.73
2017-10-11T07:01:39.482Z,101050.03
2017-10-11T07:04:08.826Z,101056.27
2017-10-11T07:06:37.182Z,101047.88
2017-10-11T07:09:07.093Z,101057.00
2017-10-11T07:11:37.959Z,101050.61
2017-10-11T07:14:06.360Z,101056.06
2017-10-11T07:16:36.778Z,101057.31
2017-10-11T07:19:06.012Z,101060.80
2017-10-11T07:21:35.148Z,101063.11
2017-10-11T07:24:03.928Z,101057.55
2017-10-11T07:26:32.959Z,101066.45
2017-10-11T07:29:02.148Z,101068.36
2017-10-11T07:31:31.116Z,101065.78
2017-10-11T07:33:59.479Z,101068.91
2017-10-11T07:36:28.614Z,101070.05
2017-10-11T07:38:58.499Z,101070.69
2017-10-11T07:41:26.879Z,101069.41
2017-10-11T07:43:57.131Z,101071.52
2017-10-11T07:46:27.286Z,101059.74
2017-10-11T07:48:55.634Z,101067.58
2017-10-11T07:51:24.279Z,101075.27
2017-10-11T07:53:55.545Z,101068.50
2017-10-11T07:56:24.727Z,101065.09
2017-10-11T07:58:53.093Z,101069.98
2017-10-11T08:01:22.970Z,101081.13
2017-10-11T08:03:51.311Z,101077.48
2017-10-11T08:06:19.693Z,101072.30
2017-10-11T08:08:48.106Z,101072.31
2017-10-11T08:11:16.962Z,101083.05
2017-10-11T08:13:46.998Z,101069.65
2017-10-11T08:16:18.039Z,101073.44
2017-10-11T08:18:46.407Z,101071.28
2017-10-11T08:21:15.329Z,101073.27
2017-10-11T08:23:45.634Z,101079.47
2017-10-11T08:26:14.253Z,101074.66
2017-10-11T08:28:43.537Z,101077.92
2017-10-11T08:31:12.477Z,101075.95
2017-10-11T08:33:43.235Z,101084.52
2017-10-11T08:36:12.215Z,101077.26
2017-10-11T08:38:40.570Z,101078.00
2017-10-11T08:41:09.787Z,101074.11
2017-10-11T08:43:39.836Z,101073.83
2017-10-11T08:46:10.102Z,101084.61
2017-10-11T08:48:39.626Z,101081.50
2017-10-11T08:51:08.162Z,101084.92
2017-10-11T08:53:37.126Z,101089.66
2017-10-11T08:56:07.299Z,101081.60
2017-10-11T08:58:38.336Z,101091.96
2017-10-11T09:01:08.909Z,101092.94
2017-10-11T09:03:39.487Z,101091.39
2017-10-11T09:06:08.527Z,101097.33
2017-10-11T09:08:36.874Z,101093.34
2017-10-11T09:11:05.604Z,101089.69
2017-10-11T09:13:34.593Z,101099.72
2017-10-11T09:16:03.387Z,101089.19
2017-10-11T09:18:33.727Z,101088.50
2017-10-11T09:21:04.415Z,101091.27
2017-10-11T09:23:32.793Z,101090.06
2017-10-11T09:26:02.054Z,101095.11
2017-10-11T09:28:30.918Z,101094.18
2017-10-11T09:30:59.283Z,101097.60
2017-10-11T09:33:29.369Z,101094.72
2017-10-11T09:35:59.167Z,101097.89
2017-10-11T09:38:27.569Z,101099.05
2017-10-11T09:40:56.603Z,101096.33
2017-10-11T09:43:25.681Z,101095.89
2017-10-11T09:45:55.611Z,101100.50
2017-10-11T09:48:24.135Z,101087.39
2017-10-11T09:50:53.282Z,101082.30
2017-10-11T09:53:22.473Z,101089.17
2017-10-11T09:55:52.164Z,101088.97
2017-10-11T09:58:21.261Z,101098.31
2017-10-11T10:00:49.619Z,101095.61
2017-10-11T10:03:18.004Z,101099.89
2017-10-11T10:05:47.400Z,101095.20
2017-10-11T10:08:15.748Z,101095.31
2017-10-11T10:10:45.384Z,101098.09
2017-10-11T10:13:15.245Z,101098.75
2017-10-11T10:15:44.358Z,101101.92
2017-10-11T10:18:12.731Z,101103.78
2017-10-11T10:20:41.098Z,101097.47
2017-10-11T10:23:10.225Z,101107.13
2017-10-11T10:25:39.565Z,101112.02
2017-10-11T10:28:08.575Z,101116.03
2017-10-11T10:30:36.953Z,101106.52
2017-10-11T10:33:06.171Z,101109.02
2017-10-11T10:35:36.449Z,101108.85
2017-10-11T10:38:04.803Z,101114.22
2017-10-11T10:40:33.193Z,101109.65
2017-10-11T10:43:02.372Z,101111.92
2017-10-11T10:45:30.753Z,101111.48
2017-10-11T10:47:59.136Z,101105.77
2017-10-11T10:50:28.221Z,101105.09
2017-10-11T10:52:57.485Z,101107.21
2017-10-11T10:55:26.982Z,101110.45
2017-10-11T10:57:56.260Z,101111.22
2017-10-11T11:00:24.645Z,101116.34
2017-10-11T11:02:53.962Z,101117.30
2017-10-11T11:05:23.112Z,101125.40
2017-10-11T11:07:53.703Z,101122.08
2017-10-11T11:10:22.891Z,101128.14
2017-10-11T11:12:51.735Z,101112.58
2017-10-11T11:15:20.107Z,101120.83
2017-10-11T11:17:49.682Z,101120.31
2017-10-11T11:20:18.846Z,101121.70
2017-10-11T11:22:47.252Z,101120.89
2017-10-11T11:25:15.728Z,101114.38
2017-10-11T11:27:45.346Z,101116.66
2017-10-11T11:30:13.686Z,101128.00
2017-10-11T11:32:42.586Z,101114.48
2017-10-11T11:35:15.995Z,101106.22
2017-10-11T11:37:44.636Z,101114.16
2017-10-11T11:40:13.020Z,101114.31
2017-10-11T11:42:42.038Z,101120.17
2017-10-11T11:45:10.855Z,101115.42
2017-10-11T11:47:39.513Z,101126.38
2017-10-11T11:50:07.880Z,101118.80
2017-10-11T11:52:38.276Z,101115.28
2017-10-11T11:55:06.866Z,101108.84
2017-10-11T11:57:35.250Z,101113.60
2017-10-11T12:00:03.859Z,101104.52
2017-10-11T12:02:33.102Z,101111.27
2017-10-11T12:05:04.647Z,101112.57
2017-10-11T12:07:33.029Z,101110.09
2017-10-11T12:10:03.729Z,101118.50
2017-10-11T12:12:32.441Z,101117.12
2017-10-11T12:15:00.828Z,101117.06
2017-10-11T12:17:36.320Z,101126.48
2017-10-11T12:20:06.074Z,101124.01
2017-10-11T12:22:34.911Z,101127.80
2017-10-11T12:25:03.656Z,101117.80
2017-10-11T12:27:32.145Z,101127.12
2017-10-11T12:30:00.838Z,101123.45
2017-10-11T12:32:29.303Z,101129.30
2017-10-11T12:34:58.549Z,101128.41
2017-10-11T12:37:27.080Z,101126.58
2017-10-11T12:39:55.490Z,101126.14
2017-10-11T12:42:25.406Z,101127.27
2017-10-11T12:44:53.914Z,101129.64
2017-10-11T12:47:22.480Z,101121.94
2017-10-11T12:49:51.952Z,101123.36
2017-10-11T12:52:21.197Z,101117.05
2017-10-11T12:54:51.205Z,101120.69
2017-10-11T12:57:19.851Z,101121.28
2017-10-11T12:59:48.249Z,101119.10
2017-10-11T13:02:16.655Z,101119.62
2017-10-11T13:04:49.237Z,101116.09
2017-10-11T13:07:18.534Z,101118.68
2017-10-11T13:09:47.661Z,101113.77
2017-10-11T13:12:17.496Z,101114.02
2017-10-11T13:14:45.892Z,101105.45
2017-10-11T13:17:14.924Z,101115.81
2017-10-11T13:19:44.404Z,101107.48
2017-10-11T13:22:13.165Z,101112.73
2017-10-11T13:24:41.742Z,101118.30
2017-10-11T13:27:13.398Z,101113.61
2017-10-11T13:29:43.284Z,101111.96
2017-10-11T13:32:12.477Z,101112.44
2017-10-11T13:34:40.838Z,101106.73
2017-10-11T13:37:09.225Z,101108.37
2017-10-11T13:39:38.586Z,101100.87
2017-10-11T13:42:06.997Z,101098.09
2017-10-11T13:44:36.148Z,101105.05
2017-10-11T13:47:04.734Z,101109.19
2017-10-11T13:49:33.180Z,101110.10
2017-10-11T13:52:03.394Z,101102.00
2017-10-11T13:54:32.671Z,101094.31
2017-10-11T13:57:02.271Z,101093.23
2017-10-11T13:59:31.450Z,101095.59
2017-10-11T14:02:00.050Z,101093.68
2017-10-11T14:04:29.129Z,101098.72
2017-10-11T14:06:57.479Z,101092.66
2017-10-11T14:09:25.835Z,101094.05
2017-10-11T14:11:54.388Z,101077.01
2017-10-11T14:14:23.062Z,101077.89
2017-10-11T14:16:53.178Z,101084.25
2017-10-11T14:19:22.763Z,101080.30
2017-10-11T14:21:51.634Z,101078.81
2017-10-11T14:24:20.760Z,101087.14
2017-10-11T14:26:49.982Z,101078.91
2017-10-11T14:29:18.332Z,101077.73
2017-10-11T14:31:47.700Z,101082.13
2017-10-11T14:34:19.094Z,101076.79
2017-10-11T14:36:48.129Z,101075.30
2017-10-11T14:39:17.290Z,101085.76
2017-10-11T14:41:46.627Z,101077.44
2017-10-11T14:44:16.283Z,101080.19
2017-10-11T14:46:44.675Z,101074.34
2017-10-11T14:49:13.675Z,101080.25
2017-10-11T14:51:43.685Z,101086.31
2017-10-11T14:54:12.315Z,101080.02
2017-10-11T14:56:42.139Z,101079.13
2017-10-11T14:59:10.876Z,101079.82
2017-10-11T15:01:39.294Z,101090.38
2017-10-11T15:04:07.815Z,101095.45
2017-10-11T15:06:36.745Z,101097.52
2017-10-11T15:09:06.489Z,101090.91
2017-10-11T15:11:35.983Z,101090.70
2017-10-11T15:14:04.693Z,101078.77
2017-10-11T15:16:33.871Z,101088.81
2017-10-11T15:19:03.360Z,101086.24
2017-10-11T15:21:31.771Z,101098.93
2017-10-11T15:24:02.164Z,101083.23
2017-10-11T15:26:31.580Z,101086.59
2017-10-11T15:29:00.709Z,101086.69
2017-10-11T15:31:30.648Z,101082.42
2017-10-11T15:33:59.057Z,101095.38
2017-10-11T15:36:28.193Z,101091.58
2017-10-11T15:38:58.413Z,101092.13
2017-10-11T15:41:28.396Z,101095.56
2017-10-11T15:43:56.866Z,101086.77
2017-10-11T15:46:26.252Z,101088.45
2017-10-11T15:48:55.022Z,101094.78
2017-10-11T15:51:23.574Z,101089.22
2017-10-11T15:53:51.929Z,101103.62
2017-10-11T15:56:20.370Z,101094.27
2017-10-11T15:58:48.731Z,101100.57
2017-10-11T16:01:17.852Z,101094.78
2017-10-11T16:03:46.304Z,101089.62
2017-10-11T16:06:15.626Z,101090.05
2017-10-11T16:08:43.964Z,101089.77
2017-10-11T16:11:12.394Z,101087.77
2017-10-11T16:13:40.760Z,101093.43
2017-10-11T16:16:09.107Z,101094.23
2017-10-11T16:18:38.027Z,101090.29
2017-10-11T16:21:06.396Z,101093.38
2017-10-11T16:23:35.500Z,101093.34
2017-10-11T16:26:05.348Z,101097.98
2017-10-11T16:28:33.732Z,101086.36
2017-10-11T16:31:02.895Z,101097.57
2017-10-11T16:33:31.533Z,101087.47
2017-10-11T16:36:00.787Z,101095.05
2017-10-11T16:38:29.467Z,101094.83
2017-10-11T16:40:58.349Z,101083.17
2017-10-11T16:43:27.767Z,101087.70
2017-10-11T16:45:56.159Z,101082.55
2017-10-11T16:48:24.700Z,101088.94
2017-10-11T16:50:54.591Z,101097.57
2017-10-11T16:53:23.648Z,101085.88
2017-10-11T16:55:52.316Z,101088.77
2017-10-11T16:58:20.778Z,101089.78
2017-10-11T17:00:49.944Z,101092.75
2017-10-11T17:03:18.323Z,101089.27
2017-10-11T17:05:46.701Z,101105.25
2017-10-11T17:08:15.364Z,101090.75
2017-10-11T17:10:45.226Z,101082.20
2017-10-11T17:13:14.244Z,101086.23
2017-10-11T17:15:43.091Z,101094.18
2017-10-11T17:18:12.276Z,101094.64
2017-10-11T17:20:40.627Z,101098.48
2017-10-11T17:23:09.061Z,101088.60
2017-10-11T17:25:38.153Z,101092.31
2017-10-11T17:28:07.051Z,101084.67
2017-10-11T17:30:35.392Z,101092.95
2017-10-11T17:33:03.991Z,101086.02
2017-10-11T17:35:33.115Z,101087.17
2017-10-11T17:38:01.468Z,101087.34
2017-10-11T17:40:30.059Z,101086.80
2017-10-11T17:42:58.503Z,101087.77
2017-10-11T17:45:27.112Z,101086.66
2017-10-11T17:47:56.211Z,101081.16
2017-10-11T17:50:25.266Z,101084.19
2017-10-11T17:52:55.831Z,101084.09
2017-10-11T17:55:24.731Z,101087.50
2017-10-11T17:57:55.876Z,101089.74
2017-10-11T18:00:25.748Z,101080.44
2017-10-11T18:02:54.249Z,101072.30
2017-10-11T18:05:22.608Z,101087.93
2017-10-11T18:07:52.422Z,101082.75
2017-10-11T18:10:22.500Z,101086.11
2017-10-11T18:12:50.872Z,101091.58
2017-10-11T18:15:19.302Z,101089.82
2017-10-11T18:17:48.748Z,101085.62
2017-10-11T18:20:17.141Z,101088.07
2017-10-11T18:22:45.758Z,101085.13
2017-10-11T18:25:14.972Z,101088.17
2017-10-11T18:27:44.568Z,101083.27
2017-10-11T18:30:14.640Z,101081.88
2017-10-11T18:32:44.716Z,101083.95
2017-10-11T18:35:13.891Z,101081.05
2017-10-11T18:37:43.411Z,101090.41
2017-10-11T18:40:12.142Z,101089.13
2017-10-11T18:42:41.630Z,101092.33
2017-10-11T18:45:10.003Z,101088.16
2017-10-11T18:47:38.815Z,101093.79
2017-10-11T18:50:07.272Z,101088.16
2017-10-11T18:52:35.697Z,101088.65
2017-10-11T18:55:04.795Z,101083.19
2017-10-11T18:57:34.025Z,101084.43
2017-10-11T19:00:02.611Z,101081.02
2017-10-11T19:02:31.951Z,101077.73
2017-10-11T19:05:02.227Z,101075.19
2017-10-11T19:07:31.011Z,101075.52
2017-10-11T19:09:59.417Z,101078.42
2017-10-11T19:12:29.082Z,101086.28
2017-10-11T19:14:58.252Z,101084.86
2017-10-11T19:17:27.772Z,101082.45
2017-10-11T19:19:56.855Z,101077.04
2017-10-11T19:22:26.866Z,101069.76
2017-10-11T19:24:55.987Z,101078.81
2017-10-11T19:27:24.750Z,101076.02
2017-10-11T19:29:53.160Z,101076.41
2017-10-11T19:32:21.535Z,101081.41
2017-10-11T19:34:50.722Z,101075.14
2017-10-11T19:37:20.530Z,101077.15
2017-10-11T19:39:48.994Z,101077.94
2017-10-11T19:42:18.134Z,101067.90
2017-10-11T19:44:46.555Z,101073.42
2017-10-11T19:47:15.094Z,101073.05
2017-10-11T19:49:44.605Z,101082.82
2017-10-11T19:52:12.995Z,101081.52
2017-10-11T19:54:42.385Z,101075.92
2017-10-11T19:57:11.626Z,101065.16
2017-10-11T19:59:41.488Z,101062.02
2017-10-11T20:02:11.050Z,101066.95
2017-10-11T20:04:41.779Z,101066.02
2017-10-11T20:07:10.723Z,101053.41
2017-10-11T20:09:39.500Z,101050.71
2017-10-11T20:12:08.329Z,101056.97
2017-10-11T20:14:36.998Z,101049.25
2017-10-11T20:17:05.947Z,101057.39
2017-10-11T20:19:34.396Z,101061.27
2017-10-11T20:22:03.569Z,101058.44
2017-10-11T20:24:32.868Z,101057.64
2017-10-11T20:27:01.713Z,101059.69
2017-10-11T20:29:30.591Z,101065.75
2017-10-11T20:31:59.190Z,101056.80
2017-10-11T20:34:28.264Z,101051.80
2017-10-11T20:36:57.357Z,101049.36
2017-10-11T20:39:25.832Z,101047.08
2017-10-11T20:41:55.703Z,101046.39
2017-10-11T20:44:25.825Z,101053.33
2017-10-11T20:46:56.122Z,101058.23
2017-10-11T20:49:25.718Z,101051.88
2017-10-11T20:51:55.816Z,101058.16
2017-10-11T20:54:29.799Z,101050.30
2017-10-11T20:56:58.444Z,101053.03
2017-10-11T20:59:27.591Z,101044.36
2017-10-11T21:01:57.206Z,101015.12
2017-10-11T21:04:27.254Z,101020.88
2017-10-11T21:06:56.369Z,101005.78
2017-10-11T21:09:25.642Z,101011.43
2017-10-11T21:11:54.762Z,101017.20
2017-10-11T21:14:23.823Z,101020.42
2017-10-11T21:16:54.311Z,101014.23
2017-10-11T21:19:23.601Z,101015.30
2017-10-11T21:21:51.972Z,101015.28
2017-10-11T21:24:20.368Z,101016.15
2017-10-11T21:26:49.756Z,101012.97
2017-10-11T21:29:18.119Z,101010.23
2017-10-11T21:31:48.298Z,100999.07
2017-10-11T21:34:16.643Z,100998.45
2017-10-11T21:36:45.029Z,100994.42
2017-10-11T21:39:13.908Z,100991.22
2017-10-11T21:41:42.242Z,100997.05
2017-10-11T21:44:11.394Z,100988.95
2017-10-11T21:46:41.385Z,100982.19
2017-10-11T21:49:10.415Z,100982.63
2017-10-11T21:51:39.324Z,100977.34
2017-10-11T21:54:08.547Z,100986.02
2017-10-11T21:56:37.911Z,100980.95
2017-10-11T21:59:07.582Z,100978.31
2017-10-11T22:01:36.130Z,100980.39
2017-10-11T22:04:04.566Z,100981.75
2017-10-11T22:06:33.005Z,100981.12
2017-10-11T22:09:02.219Z,100978.09
2017-10-11T22:11:31.266Z,100977.53
2017-10-11T22:14:00.215Z,100976.82
2017-10-11T22:16:28.764Z,100970.36
2017-10-11T22:18:57.757Z,100977.99
2017-10-11T22:21:27.159Z,100970.92
2017-10-11T22:23:55.895Z,100962.06
2017-10-11T22:26:24.295Z,100955.37
2017-10-11T22:28:53.563Z,100950.72
2017-10-11T22:31:22.004Z,100955.17
2017-10-11T22:33:50.622Z,100949.39
2017-10-11T22:36:19.087Z,100937.81
2017-10-11T22:38:48.284Z,100929.68
2017-10-11T22:41:17.436Z,100932.58
2017-10-11T22:43:46.321Z,100928.02
2017-10-11T22:46:14.905Z,100929.36
2017-10-11T22:48:43.464Z,100934.63
2017-10-11T22:51:12.623Z,100937.09
2017-10-11T22:53:42.777Z,100929.52
2017-10-11T22:56:13.101Z,100923.56
2017-10-11T22:58:41.720Z,100917.09
2017-10-11T23:01:10.209Z,100916.48
2017-10-11T23:03:38.727Z,100909.29
2017-10-11T23:06:07.521Z,100910.91
2017-10-11T23:08:36.654Z,100912.14
2017-10-11T23:11:05.175Z,100912.28
2017-10-11T23:13:34.225Z,100901.68
2017-10-11T23:16:02.685Z,100895.98
2017-10-11T23:18:32.952Z,100897.55
2017-10-11T23:21:01.309Z,100885.91
2017-10-11T23:23:29.776Z,100893.48
2017-10-11T23:25:58.326Z,100898.20
2017-10-11T23:28:27.462Z,100902.39
2017-10-11T23:30:56.296Z,100891.11
2017-10-11T23:33:24.873Z,100889.45
2017-10-11T23:35:54.187Z,100888.44
2017-10-11T23:38:22.574Z,100880.67
2017-10-11T23:40:51.033Z,100874.90
2017-10-11T23:43:19.462Z,100881.13
2017-10-11T23:45:47.941Z,100882.59
2017-10-11T23:48:16.857Z,100878.08
2017-10-11T23:50:45.238Z,100877.72
2017-10-11T23:53:13.674Z,100873.26
2017-10-11T23:55:44.348Z,100876.17
2017-10-11T23:58:12.770Z,100865.63
